EmailTwitter


Observations de surface / France / LFMP (07747)

Régions: Québec | Canada | États-Unis | Europe | France | UK | Ailleurs
Station
Affichage
Infos & localisation pour LFMP (07747) | Aide pour décoder les METARs

Observations prises le 2018-02-23 à 17H30 UTC à PERPIGNAN/RIVESA, FR (LFMP)

Température: 7.0 Celsius

Point de rosée: -3.0 Celsius

Humidité relative: 49%

Facteur vent: 4.

Vents: Nord-ouest à 15 km/h ou 8 noeuds.

Pression au niveau moyen de la mer: 100.70 kilopascals.

Observation METAR:

LFMP 231730Z AUTO 33008KT 290V350 CAVOK 07/M03 Q1007 NOSIG=